sensor_id;sensor_type;location;lat;lon;timestamp;pressure;altitude;pressure_sealevel;temperature;humidity
21988;BME280;11158;53.404;-1.510;2023-03-19T00:00:54;99857.03;;;10.39;53.16
21988;BME280;11158;53.404;-1.510;2023-03-19T00:03:39;99840.41;;;10.43;53.57
21988;BME280;11158;53.404;-1.510;2023-03-19T00:06:23;99848.56;;;10.35;53.65
21988;BME280;11158;53.404;-1.510;2023-03-19T00:09:09;99850.34;;;10.56;52.71
21988;BME280;11158;53.404;-1.510;2023-03-19T00:11:53;99857.66;;;10.41;53.01
21988;BME280;11158;53.404;-1.510;2023-03-19T00:14:38;99870.06;;;10.27;53.31
21988;BME280;11158;53.404;-1.510;2023-03-19T00:17:22;99875.84;;;10.31;53.20
21988;BME280;11158;53.404;-1.510;2023-03-19T00:20:07;99874.53;;;10.20;52.97
21988;BME280;11158;53.404;-1.510;2023-03-19T00:22:51;99881.16;;;10.24;52.89
21988;BME280;11158;53.404;-1.510;2023-03-19T00:25:35;99887.50;;;9.95;54.15
21988;BME280;11158;53.404;-1.510;2023-03-19T00:28:20;99892.03;;;10.01;53.60
21988;BME280;11158;53.404;-1.510;2023-03-19T00:31:23;99885.19;;;10.13;53.42
21988;BME280;11158;53.404;-1.510;2023-03-19T00:34:08;99889.78;;;9.76;54.51
21988;BME280;11158;53.404;-1.510;2023-03-19T00:36:52;99896.41;;;9.80;54.62
21988;BME280;11158;53.404;-1.510;2023-03-19T00:39:36;99891.50;;;9.84;54.51
21988;BME280;11158;53.404;-1.510;2023-03-19T00:42:20;99884.31;;;10.06;54.15
21988;BME280;11158;53.404;-1.510;2023-03-19T00:45:05;99886.97;;;10.06;53.20
21988;BME280;11158;53.404;-1.510;2023-03-19T00:47:51;99908.03;;;9.94;53.96
21988;BME280;11158;53.404;-1.510;2023-03-19T00:50:35;99912.00;;;10.05;53.50
21988;BME280;11158;53.404;-1.510;2023-03-19T00:53:19;99921.31;;;9.88;53.80
21988;BME280;11158;53.404;-1.510;2023-03-19T00:56:04;99916.91;;;9.80;54.17
21988;BME280;11158;53.404;-1.510;2023-03-19T00:58:52;99911.44;;;10.10;53.63
21988;BME280;11158;53.404;-1.510;2023-03-19T01:01:36;99916.69;;;10.24;53.23
21988;BME280;11158;53.404;-1.510;2023-03-19T01:04:21;99920.22;;;9.82;54.41
21988;BME280;11158;53.404;-1.510;2023-03-19T01:07:06;99925.38;;;9.83;54.50
21988;BME280;11158;53.404;-1.510;2023-03-19T01:09:50;99928.94;;;9.91;54.41
21988;BME280;11158;53.404;-1.510;2023-03-19T01:12:35;99928.47;;;10.93;52.42
21988;BME280;11158;53.404;-1.510;2023-03-19T01:15:19;99944.16;;;10.68;52.50
21988;BME280;11158;53.404;-1.510;2023-03-19T01:18:04;99930.00;;;10.74;52.81
21988;BME280;11158;53.404;-1.510;2023-03-19T01:20:48;99937.31;;;10.59;53.02
21988;BME280;11158;53.404;-1.510;2023-03-19T01:23:33;99941.66;;;10.32;53.82
21988;BME280;11158;53.404;-1.510;2023-03-19T01:26:17;99927.91;;;9.70;55.23
21988;BME280;11158;53.404;-1.510;2023-03-19T01:29:02;99923.94;;;9.81;54.52
21988;BME280;11158;53.404;-1.510;2023-03-19T01:31:45;99940.38;;;9.84;54.66
21988;BME280;11158;53.404;-1.510;2023-03-19T01:34:30;99932.38;;;10.06;53.95
21988;BME280;11158;53.404;-1.510;2023-03-19T01:37:14;99938.47;;;9.78;53.42
21988;BME280;11158;53.404;-1.510;2023-03-19T01:39:59;99930.09;;;9.81;53.68
21988;BME280;11158;53.404;-1.510;2023-03-19T01:42:51;99936.69;;;10.07;52.60
21988;BME280;11158;53.404;-1.510;2023-03-19T01:45:36;99926.72;;;9.73;53.44
21988;BME280;11158;53.404;-1.510;2023-03-19T01:48:38;99938.38;;;9.50;54.04
21988;BME280;11158;53.404;-1.510;2023-03-19T01:51:26;99939.88;;;9.74;53.70
21988;BME280;11158;53.404;-1.510;2023-03-19T01:54:13;99926.94;;;9.56;54.37
21988;BME280;11158;53.404;-1.510;2023-03-19T01:57:02;99939.41;;;10.14;52.88
21988;BME280;11158;53.404;-1.510;2023-03-19T01:59:52;99921.16;;;10.17;53.31
21988;BME280;11158;53.404;-1.510;2023-03-19T02:02:38;99918.03;;;10.14;53.28
21988;BME280;11158;53.404;-1.510;2023-03-19T02:05:24;99919.56;;;10.23;53.07
21988;BME280;11158;53.404;-1.510;2023-03-19T02:08:11;99924.09;;;10.51;53.11
21988;BME280;11158;53.404;-1.510;2023-03-19T02:10:57;99921.81;;;10.19;53.24
21988;BME280;11158;53.404;-1.510;2023-03-19T02:13:43;99921.28;;;10.94;51.39
21988;BME280;11158;53.404;-1.510;2023-03-19T02:16:28;99911.16;;;10.89;51.28
21988;BME280;11158;53.404;-1.510;2023-03-19T02:19:26;99923.78;;;11.08;51.32
21988;BME280;11158;53.404;-1.510;2023-03-19T02:22:17;99926.78;;;11.40;50.62
21988;BME280;11158;53.404;-1.510;2023-03-19T02:25:34;99922.38;;;11.13;51.21
21988;BME280;11158;53.404;-1.510;2023-03-19T02:28:21;99923.97;;;11.00;51.53
21988;BME280;11158;53.404;-1.510;2023-03-19T02:31:06;99935.56;;;10.44;53.54
21988;BME280;11158;53.404;-1.510;2023-03-19T02:37:23;99943.78;;;10.43;54.45
21988;BME280;11158;53.404;-1.510;2023-03-19T02:40:21;99935.28;;;10.11;54.86
21988;BME280;11158;53.404;-1.510;2023-03-19T02:43:06;99938.34;;;10.08;55.06
21988;BME280;11158;53.404;-1.510;2023-03-19T02:45:51;99952.78;;;9.92;56.16
21988;BME280;11158;53.404;-1.510;2023-03-19T02:48:35;99953.78;;;9.70;55.99
21988;BME280;11158;53.404;-1.510;2023-03-19T02:51:20;99955.56;;;9.62;56.34
21988;BME280;11158;53.404;-1.510;2023-03-19T02:54:06;99957.53;;;10.18;55.38
21988;BME280;11158;53.404;-1.510;2023-03-19T02:56:50;99964.16;;;10.22;54.47
21988;BME280;11158;53.404;-1.510;2023-03-19T02:59:35;99969.88;;;10.19;54.22
21988;BME280;11158;53.404;-1.510;2023-03-19T03:02:19;99967.84;;;10.00;54.50
21988;BME280;11158;53.404;-1.510;2023-03-19T03:05:04;99973.94;;;10.15;54.26
21988;BME280;11158;53.404;-1.510;2023-03-19T03:07:49;99972.66;;;10.54;53.42
21988;BME280;11158;53.404;-1.510;2023-03-19T03:10:33;99980.31;;;10.36;53.46
21988;BME280;11158;53.404;-1.510;2023-03-19T03:13:17;99978.09;;;11.02;52.04
21988;BME280;11158;53.404;-1.510;2023-03-19T03:16:02;99979.63;;;10.55;53.36
21988;BME280;11158;53.404;-1.510;2023-03-19T03:18:46;99988.69;;;10.54;53.73
21988;BME280;11158;53.404;-1.510;2023-03-19T03:21:30;99984.34;;;11.16;52.04
21988;BME280;11158;53.404;-1.510;2023-03-19T03:24:14;99974.56;;;11.37;51.57
21988;BME280;11158;53.404;-1.510;2023-03-19T03:26:58;99982.03;;;11.06;52.19
21988;BME280;11158;53.404;-1.510;2023-03-19T03:29:42;99991.09;;;11.12;52.13
21988;BME280;11158;53.404;-1.510;2023-03-19T03:32:26;100004.72;;;10.33;53.76
21988;BME280;11158;53.404;-1.510;2023-03-19T03:35:10;100002.97;;;9.82;55.42
21988;BME280;11158;53.404;-1.510;2023-03-19T03:37:55;100005.59;;;10.18;55.01
21988;BME280;11158;53.404;-1.510;2023-03-19T03:40:39;100001.00;;;10.12;54.83
21988;BME280;11158;53.404;-1.510;2023-03-19T03:43:25;100000.47;;;10.38;53.80
21988;BME280;11158;53.404;-1.510;2023-03-19T03:46:09;100001.16;;;10.47;53.90
21988;BME280;11158;53.404;-1.510;2023-03-19T03:48:54;99999.88;;;10.21;54.69
21988;BME280;11158;53.404;-1.510;2023-03-19T03:51:37;99996.66;;;9.68;56.07
21988;BME280;11158;53.404;-1.510;2023-03-19T03:54:22;100005.78;;;9.59;56.53
21988;BME280;11158;53.404;-1.510;2023-03-19T03:57:06;100006.03;;;9.79;55.95
21988;BME280;11158;53.404;-1.510;2023-03-19T03:59:51;99999.34;;;9.68;56.03
21988;BME280;11158;53.404;-1.510;2023-03-19T04:02:35;100002.34;;;9.80;56.30
21988;BME280;11158;53.404;-1.510;2023-03-19T04:05:19;100009.31;;;10.17;55.47
21988;BME280;11158;53.404;-1.510;2023-03-19T04:08:03;100015.00;;;10.57;54.25
21988;BME280;11158;53.404;-1.510;2023-03-19T04:10:48;100024.94;;;10.63;53.45
21988;BME280;11158;53.404;-1.510;2023-03-19T04:13:33;100028.28;;;11.00;52.52
21988;BME280;11158;53.404;-1.510;2023-03-19T04:16:19;100025.19;;;11.03;52.29
21988;BME280;11158;53.404;-1.510;2023-03-19T04:19:04;100041.34;;;10.60;53.80
21988;BME280;11158;53.404;-1.510;2023-03-19T04:21:50;100040.53;;;10.88;52.92
21988;BME280;11158;53.404;-1.510;2023-03-19T04:24:34;100043.09;;;9.89;55.67
21988;BME280;11158;53.404;-1.510;2023-03-19T04:27:19;100043.00;;;9.82;56.44
21988;BME280;11158;53.404;-1.510;2023-03-19T04:30:03;100044.06;;;10.02;55.96
21988;BME280;11158;53.404;-1.510;2023-03-19T04:32:48;100046.41;;;10.12;55.43
21988;BME280;11158;53.404;-1.510;2023-03-19T04:35:33;100040.72;;;10.15;55.73
21988;BME280;11158;53.404;-1.510;2023-03-19T04:38:16;100045.38;;;10.50;54.85
21988;BME280;11158;53.404;-1.510;2023-03-19T04:41:00;100047.97;;;10.64;54.52
21988;BME280;11158;53.404;-1.510;2023-03-19T04:43:45;100049.69;;;11.00;52.81
21988;BME280;11158;53.404;-1.510;2023-03-19T04:46:29;100065.81;;;10.36;54.15
21988;BME280;11158;53.404;-1.510;2023-03-19T04:49:13;100060.47;;;10.36;54.86
21988;BME280;11158;53.404;-1.510;2023-03-19T04:51:58;100066.31;;;10.46;53.88
21988;BME280;11158;53.404;-1.510;2023-03-19T04:54:42;100076.94;;;10.89;53.19
21988;BME280;11158;53.404;-1.510;2023-03-19T04:57:26;100084.59;;;10.42;54.36
21988;BME280;11158;53.404;-1.510;2023-03-19T05:00:10;100088.53;;;10.96;53.06
21988;BME280;11158;53.404;-1.510;2023-03-19T05:02:56;100079.84;;;11.22;52.28
21988;BME280;11158;53.404;-1.510;2023-03-19T05:05:40;100085.53;;;10.56;53.99
21988;BME280;11158;53.404;-1.510;2023-03-19T05:08:25;100087.25;;;10.06;55.23
21988;BME280;11158;53.404;-1.510;2023-03-19T05:11:09;100086.75;;;9.81;55.89
21988;BME280;11158;53.404;-1.510;2023-03-19T05:13:54;100088.97;;;9.77;56.60
21988;BME280;11158;53.404;-1.510;2023-03-19T05:16:38;100086.59;;;9.53;57.14
21988;BME280;11158;53.404;-1.510;2023-03-19T05:19:23;100082.50;;;9.86;56.33
21988;BME280;11158;53.404;-1.510;2023-03-19T05:22:08;100082.50;;;9.86;56.26
21988;BME280;11158;53.404;-1.510;2023-03-19T05:24:52;100087.84;;;9.86;56.13
21988;BME280;11158;53.404;-1.510;2023-03-19T05:27:36;100110.31;;;9.77;56.36
21988;BME280;11158;53.404;-1.510;2023-03-19T05:30:20;100106.09;;;9.38;57.64
21988;BME280;11158;53.404;-1.510;2023-03-19T05:33:05;100109.97;;;9.65;57.18
21988;BME280;11158;53.404;-1.510;2023-03-19T05:35:49;100101.25;;;10.08;56.23
21988;BME280;11158;53.404;-1.510;2023-03-19T05:38:34;100107.06;;;9.97;56.17
21988;BME280;11158;53.404;-1.510;2023-03-19T05:41:18;100117.41;;;10.21;55.68
21988;BME280;11158;53.404;-1.510;2023-03-19T05:44:03;100110.94;;;10.31;54.99
21988;BME280;11158;53.404;-1.510;2023-03-19T05:46:47;100116.97;;;10.03;55.82
21988;BME280;11158;53.404;-1.510;2023-03-19T05:49:31;100115.75;;;10.20;55.47
21988;BME280;11158;53.404;-1.510;2023-03-19T05:52:15;100116.75;;;9.68;57.00
21988;BME280;11158;53.404;-1.510;2023-03-19T05:55:00;100124.00;;;9.89;56.69
21988;BME280;11158;53.404;-1.510;2023-03-19T05:57:44;100125.88;;;9.59;57.16
21988;BME280;11158;53.404;-1.510;2023-03-19T06:00:29;100134.78;;;9.66;57.22
21988;BME280;11158;53.404;-1.510;2023-03-19T06:03:13;100132.25;;;9.58;57.11
21988;BME280;11158;53.404;-1.510;2023-03-19T06:05:58;100132.25;;;9.58;57.22
21988;BME280;11158;53.404;-1.510;2023-03-19T06:08:42;100137.66;;;9.64;57.23
21988;BME280;11158;53.404;-1.510;2023-03-19T06:11:26;100135.63;;;9.67;57.00
21988;BME280;11158;53.404;-1.510;2023-03-19T06:14:10;100143.00;;;9.50;57.41
21988;BME280;11158;53.404;-1.510;2023-03-19T06:16:54;100140.41;;;9.56;56.99
21988;BME280;11158;53.404;-1.510;2023-03-19T06:19:39;100144.94;;;9.56;57.22
21988;BME280;11158;53.404;-1.510;2023-03-19T06:22:23;100151.38;;;9.61;57.18
21988;BME280;11158;53.404;-1.510;2023-03-19T06:25:07;100148.13;;;10.11;55.56
21988;BME280;11158;53.404;-1.510;2023-03-19T06:27:52;100157.72;;;9.60;56.51
21988;BME280;11158;53.404;-1.510;2023-03-19T06:30:36;100163.53;;;10.45;55.43
21988;BME280;11158;53.404;-1.510;2023-03-19T06:33:20;100161.19;;;11.00;53.86
21988;BME280;11158;53.404;-1.510;2023-03-19T06:36:06;100168.09;;;11.16;53.50
21988;BME280;11158;53.404;-1.510;2023-03-19T06:38:50;100169.56;;;11.46;52.00
21988;BME280;11158;53.404;-1.510;2023-03-19T06:41:34;100173.41;;;11.37;51.76
21988;BME280;11158;53.404;-1.510;2023-03-19T06:44:18;100167.91;;;11.80;51.41
21988;BME280;11158;53.404;-1.510;2023-03-19T06:47:03;100163.69;;;12.54;49.76
21988;BME280;11158;53.404;-1.510;2023-03-19T06:49:47;100170.03;;;12.40;49.05
21988;BME280;11158;53.404;-1.510;2023-03-19T06:52:31;100164.78;;;13.06;47.94
21988;BME280;11158;53.404;-1.510;2023-03-19T06:55:15;100183.19;;;12.21;49.74
21988;BME280;11158;53.404;-1.510;2023-03-19T06:58:00;100189.09;;;12.10;49.98
21988;BME280;11158;53.404;-1.510;2023-03-19T07:00:44;100207.06;;;11.03;52.84
21988;BME280;11158;53.404;-1.510;2023-03-19T07:03:29;100207.97;;;10.67;54.50
21988;BME280;11158;53.404;-1.510;2023-03-19T07:06:13;100199.00;;;10.97;54.02
21988;BME280;11158;53.404;-1.510;2023-03-19T07:08:57;100212.56;;;11.17;53.53
21988;BME280;11158;53.404;-1.510;2023-03-19T07:11:42;100208.47;;;10.78;54.97
21988;BME280;11158;53.404;-1.510;2023-03-19T07:14:26;100210.50;;;10.76;55.33
21988;BME280;11158;53.404;-1.510;2023-03-19T07:17:11;100214.47;;;10.80;55.18
21988;BME280;11158;53.404;-1.510;2023-03-19T07:19:55;100221.03;;;10.77;55.24
21988;BME280;11158;53.404;-1.510;2023-03-19T07:22:39;100225.91;;;10.22;56.51
21988;BME280;11158;53.404;-1.510;2023-03-19T07:25:23;100225.72;;;10.39;55.65
21988;BME280;11158;53.404;-1.510;2023-03-19T07:28:07;100231.25;;;10.74;55.36
21988;BME280;11158;53.404;-1.510;2023-03-19T07:30:52;100233.63;;;10.83;55.05
21988;BME280;11158;53.404;-1.510;2023-03-19T07:33:37;100236.34;;;10.68;54.73
21988;BME280;11158;53.404;-1.510;2023-03-19T07:36:21;100237.56;;;10.66;54.88
21988;BME280;11158;53.404;-1.510;2023-03-19T07:39:06;100243.06;;;11.01;54.19
21988;BME280;11158;53.404;-1.510;2023-03-19T07:41:50;100242.94;;;11.09;53.96
21988;BME280;11158;53.404;-1.510;2023-03-19T07:44:35;100242.63;;;10.97;54.09
21988;BME280;11158;53.404;-1.510;2023-03-19T07:47:19;100251.91;;;10.80;54.61
21988;BME280;11158;53.404;-1.510;2023-03-19T07:50:04;100255.16;;;10.75;54.94
21988;BME280;11158;53.404;-1.510;2023-03-19T07:52:49;100260.38;;;11.26;54.07
21988;BME280;11158;53.404;-1.510;2023-03-19T07:55:34;100260.31;;;11.20;53.33
21988;BME280;11158;53.404;-1.510;2023-03-19T07:58:18;100263.34;;;11.38;52.88
21988;BME280;11158;53.404;-1.510;2023-03-19T08:01:02;100269.59;;;11.95;51.55
21988;BME280;11158;53.404;-1.510;2023-03-19T08:03:46;100272.09;;;11.47;52.11
21988;BME280;11158;53.404;-1.510;2023-03-19T08:06:31;100269.94;;;11.36;52.12
21988;BME280;11158;53.404;-1.510;2023-03-19T08:09:15;100275.03;;;11.80;51.52
21988;BME280;11158;53.404;-1.510;2023-03-19T08:11:59;100285.59;;;11.88;50.99
21988;BME280;11158;53.404;-1.510;2023-03-19T08:14:43;100292.38;;;11.84;50.95
21988;BME280;11158;53.404;-1.510;2023-03-19T08:17:27;100302.31;;;11.41;52.28
21988;BME280;11158;53.404;-1.510;2023-03-19T08:20:14;100306.41;;;11.65;51.61
21988;BME280;11158;53.404;-1.510;2023-03-19T08:23:02;100296.69;;;11.85;51.06
21988;BME280;11158;53.404;-1.510;2023-03-19T08:25:47;100298.63;;;11.70;51.11
21988;BME280;11158;53.404;-1.510;2023-03-19T08:28:31;100301.22;;;12.13;49.89
21988;BME280;11158;53.404;-1.510;2023-03-19T08:31:16;100293.19;;;12.13;49.78
21988;BME280;11158;53.404;-1.510;2023-03-19T08:34:00;100281.03;;;12.52;49.04
21988;BME280;11158;53.404;-1.510;2023-03-19T08:36:47;100293.72;;;12.36;49.07
21988;BME280;11158;53.404;-1.510;2023-03-19T08:39:32;100303.88;;;12.48;48.69
21988;BME280;11158;53.404;-1.510;2023-03-19T08:42:17;100306.66;;;11.91;50.40
21988;BME280;11158;53.404;-1.510;2023-03-19T08:45:01;100315.00;;;12.45;49.28
21988;BME280;11158;53.404;-1.510;2023-03-19T08:47:46;100311.09;;;12.06;50.07
21988;BME280;11158;53.404;-1.510;2023-03-19T08:50:31;100310.44;;;11.76;50.70
21988;BME280;11158;53.404;-1.510;2023-03-19T08:53:15;100323.91;;;11.39;51.33
21988;BME280;11158;53.404;-1.510;2023-03-19T08:56:02;100327.25;;;11.69;50.74
21988;BME280;11158;53.404;-1.510;2023-03-19T08:58:47;100328.81;;;11.85;50.44
21988;BME280;11158;53.404;-1.510;2023-03-19T09:01:31;100329.53;;;11.72;50.19
21988;BME280;11158;53.404;-1.510;2023-03-19T09:04:15;100333.50;;;11.98;49.66
21988;BME280;11158;53.404;-1.510;2023-03-19T09:07:00;100333.38;;;12.13;48.93
21988;BME280;11158;53.404;-1.510;2023-03-19T09:09:44;100332.66;;;12.67;48.32
21988;BME280;11158;53.404;-1.510;2023-03-19T09:12:28;100331.41;;;12.63;48.34
21988;BME280;11158;53.404;-1.510;2023-03-19T09:15:12;100342.19;;;12.76;48.10
21988;BME280;11158;53.404;-1.510;2023-03-19T09:17:57;100340.06;;;13.27;46.93
21988;BME280;11158;53.404;-1.510;2023-03-19T09:20:41;100343.28;;;12.95;47.24
21988;BME280;11158;53.404;-1.510;2023-03-19T09:23:25;100341.28;;;13.11;46.53
21988;BME280;11158;53.404;-1.510;2023-03-19T09:26:10;100341.75;;;13.34;46.46
21988;BME280;11158;53.404;-1.510;2023-03-19T09:28:54;100349.13;;;12.57;47.90
21988;BME280;11158;53.404;-1.510;2023-03-19T09:31:39;100349.09;;;13.12;46.99
21988;BME280;11158;53.404;-1.510;2023-03-19T09:34:24;100354.19;;;13.35;46.53
21988;BME280;11158;53.404;-1.510;2023-03-19T09:37:09;100359.09;;;12.35;47.15
21988;BME280;11158;53.404;-1.510;2023-03-19T09:39:54;100357.16;;;12.64;47.02
21988;BME280;11158;53.404;-1.510;2023-03-19T09:45:45;100354.09;;;13.15;46.16
21988;BME280;11158;53.404;-1.510;2023-03-19T09:48:43;100350.38;;;13.23;46.24
21988;BME280;11158;53.404;-1.510;2023-03-19T09:51:40;100354.41;;;13.54;45.68
21988;BME280;11158;53.404;-1.510;2023-03-19T09:54:32;100363.03;;;13.29;46.21
21988;BME280;11158;53.404;-1.510;2023-03-19T09:57:19;100363.28;;;13.48;44.89
21988;BME280;11158;53.404;-1.510;2023-03-19T10:00:34;100361.41;;;14.01;43.20
21988;BME280;11158;53.404;-1.510;2023-03-19T10:03:41;100367.44;;;13.77;44.61
21988;BME280;11158;53.404;-1.510;2023-03-19T10:12:40;100394.09;;;13.04;47.71
21988;BME280;11158;53.404;-1.510;2023-03-19T10:15:28;100380.44;;;13.67;45.99
21988;BME280;11158;53.404;-1.510;2023-03-19T10:21:23;100378.34;;;14.55;43.30
21988;BME280;11158;53.404;-1.510;2023-03-19T10:27:09;100385.81;;;13.67;45.70
21988;BME280;11158;53.404;-1.510;2023-03-19T10:29:56;100392.44;;;13.71;43.44
21988;BME280;11158;53.404;-1.510;2023-03-19T10:32:42;100398.78;;;13.36;43.98
21988;BME280;11158;53.404;-1.510;2023-03-19T10:35:38;100397.81;;;13.91;42.91
21988;BME280;11158;53.404;-1.510;2023-03-19T10:38:25;100404.84;;;13.85;42.52
21988;BME280;11158;53.404;-1.510;2023-03-19T10:41:50;100402.38;;;13.77;42.92
21988;BME280;11158;53.404;-1.510;2023-03-19T10:44:44;100412.88;;;14.38;41.67
21988;BME280;11158;53.404;-1.510;2023-03-19T10:47:36;100418.84;;;14.54;41.86
21988;BME280;11158;53.404;-1.510;2023-03-19T10:50:36;100416.81;;;14.56;42.44
21988;BME280;11158;53.404;-1.510;2023-03-19T10:56:18;100423.78;;;14.83;42.10
21988;BME280;11158;53.404;-1.510;2023-03-19T10:59:05;100424.72;;;15.54;40.66
21988;BME280;11158;53.404;-1.510;2023-03-19T11:01:55;100427.28;;;16.56;38.22
21988;BME280;11158;53.404;-1.510;2023-03-19T11:04:40;100420.28;;;15.73;39.24
21988;BME280;11158;53.404;-1.510;2023-03-19T11:07:25;100416.88;;;15.07;41.24
21988;BME280;11158;53.404;-1.510;2023-03-19T11:10:14;100420.47;;;15.40;41.76
21988;BME280;11158;53.404;-1.510;2023-03-19T11:13:22;100422.38;;;15.33;40.69
21988;BME280;11158;53.404;-1.510;2023-03-19T11:16:07;100422.06;;;15.02;40.64
21988;BME280;11158;53.404;-1.510;2023-03-19T11:18:51;100418.50;;;15.54;39.86
21988;BME280;11158;53.404;-1.510;2023-03-19T11:21:35;100412.81;;;17.06;36.78
21988;BME280;11158;53.404;-1.510;2023-03-19T11:24:21;100419.28;;;17.05;36.88
21988;BME280;11158;53.404;-1.510;2023-03-19T11:27:08;100428.78;;;16.27;38.30
21988;BME280;11158;53.404;-1.510;2023-03-19T11:29:54;100427.97;;;16.70;37.29
21988;BME280;11158;53.404;-1.510;2023-03-19T11:33:43;100407.94;;;17.45;34.90
21988;BME280;11158;53.404;-1.510;2023-03-19T11:36:32;100403.75;;;17.91;34.02
21988;BME280;11158;53.404;-1.510;2023-03-19T11:39:27;100413.19;;;16.54;36.32
21988;BME280;11158;53.404;-1.510;2023-03-19T11:51:18;100413.69;;;15.62;37.51
21988;BME280;11158;53.404;-1.510;2023-03-19T11:57:11;100410.25;;;16.55;37.11
21988;BME280;11158;53.404;-1.510;2023-03-19T12:00:22;100411.91;;;16.13;38.05
21988;BME280;11158;53.404;-1.510;2023-03-19T12:06:49;100421.38;;;15.59;38.07
21988;BME280;11158;53.404;-1.510;2023-03-19T12:12:24;100416.28;;;14.99;39.92
21988;BME280;11158;53.404;-1.510;2023-03-19T12:21:38;100431.91;;;13.97;41.96
21988;BME280;11158;53.404;-1.510;2023-03-19T12:27:52;100419.72;;;14.41;40.83
21988;BME280;11158;53.404;-1.510;2023-03-19T12:30:41;100423.28;;;15.06;39.01
21988;BME280;11158;53.404;-1.510;2023-03-19T12:33:41;100427.66;;;15.46;38.85
21988;BME280;11158;53.404;-1.510;2023-03-19T12:36:32;100424.94;;;15.14;38.85
21988;BME280;11158;53.404;-1.510;2023-03-19T12:39:31;100435.75;;;15.01;39.01
21988;BME280;11158;53.404;-1.510;2023-03-19T12:42:20;100437.50;;;14.62;40.31
21988;BME280;11158;53.404;-1.510;2023-03-19T12:48:23;100440.72;;;14.91;41.14
21988;BME280;11158;53.404;-1.510;2023-03-19T12:51:11;100449.31;;;14.34;42.24
21988;BME280;11158;53.404;-1.510;2023-03-19T12:53:59;100454.06;;;14.45;41.23
21988;BME280;11158;53.404;-1.510;2023-03-19T12:57:07;100445.38;;;14.43;41.24
21988;BME280;11158;53.404;-1.510;2023-03-19T13:02:56;100454.28;;;14.64;41.31
21988;BME280;11158;53.404;-1.510;2023-03-19T13:06:04;100443.72;;;14.09;41.18
21988;BME280;11158;53.404;-1.510;2023-03-19T13:08:57;100436.13;;;15.11;40.39
21988;BME280;11158;53.404;-1.510;2023-03-19T13:11:54;100452.13;;;14.86;40.44
21988;BME280;11158;53.404;-1.510;2023-03-19T13:21:22;100443.50;;;15.29;39.07
21988;BME280;11158;53.404;-1.510;2023-03-19T13:24:27;100452.44;;;15.16;40.15
21988;BME280;11158;53.404;-1.510;2023-03-19T13:27:19;100448.75;;;15.56;39.45
21988;BME280;11158;53.404;-1.510;2023-03-19T13:33:03;100451.84;;;16.23;37.82
21988;BME280;11158;53.404;-1.510;2023-03-19T13:35:49;100451.88;;;15.53;39.18
21988;BME280;11158;53.404;-1.510;2023-03-19T13:38:37;100457.78;;;16.06;38.03
21988;BME280;11158;53.404;-1.510;2023-03-19T13:50:28;100473.66;;;14.93;39.77
21988;BME280;11158;53.404;-1.510;2023-03-19T13:54:03;100465.84;;;14.71;40.45
21988;BME280;11158;53.404;-1.510;2023-03-19T13:56:27;100461.88;;;14.94;39.87
21988;BME280;11158;53.404;-1.510;2023-03-19T13:59:25;100482.38;;;14.08;41.92
21988;BME280;11158;53.404;-1.510;2023-03-19T14:05:22;100492.13;;;14.16;40.40
21988;BME280;11158;53.404;-1.510;2023-03-19T14:08:13;100491.25;;;14.95;40.26
21988;BME280;11158;53.404;-1.510;2023-03-19T14:11:01;100492.75;;;14.78;40.03
21988;BME280;11158;53.404;-1.510;2023-03-19T14:13:48;100499.72;;;13.92;41.49
21988;BME280;11158;53.404;-1.510;2023-03-19T14:16:36;100497.06;;;14.12;41.19
21988;BME280;11158;53.404;-1.510;2023-03-19T14:19:22;100482.63;;;14.60;40.73
21988;BME280;11158;53.404;-1.510;2023-03-19T14:22:17;100486.72;;;14.96;40.29
21988;BME280;11158;53.404;-1.510;2023-03-19T14:25:23;100474.72;;;14.45;40.98
21988;BME280;11158;53.404;-1.510;2023-03-19T14:28:09;100479.84;;;15.00;40.14
21988;BME280;11158;53.404;-1.510;2023-03-19T14:30:54;100490.41;;;14.95;39.61
21988;BME280;11158;53.404;-1.510;2023-03-19T14:33:47;100468.00;;;15.14;38.79
21988;BME280;11158;53.404;-1.510;2023-03-19T14:36:41;100458.41;;;16.08;37.77
21988;BME280;11158;53.404;-1.510;2023-03-19T14:39:33;100447.78;;;15.82;37.93
21988;BME280;11158;53.404;-1.510;2023-03-19T14:43:31;100431.66;;;16.07;38.02
21988;BME280;11158;53.404;-1.510;2023-03-19T14:46:01;100443.97;;;15.19;38.50
21988;BME280;11158;53.404;-1.510;2023-03-19T14:49:33;100445.88;;;16.39;37.36
21988;BME280;11158;53.404;-1.510;2023-03-19T14:52:19;100440.84;;;15.99;36.69
21988;BME280;11158;53.404;-1.510;2023-03-19T14:55:11;100452.56;;;15.80;36.90
21988;BME280;11158;53.404;-1.510;2023-03-19T14:58:02;100463.16;;;15.81;37.25
21988;BME280;11158;53.404;-1.510;2023-03-19T15:00:52;100447.84;;;15.75;36.83
21988;BME280;11158;53.404;-1.510;2023-03-19T15:03:40;100453.66;;;14.62;38.67
21988;BME280;11158;53.404;-1.510;2023-03-19T15:06:30;100453.56;;;15.47;38.33
21988;BME280;11158;53.404;-1.510;2023-03-19T15:09:19;100456.72;;;16.07;36.72
21988;BME280;11158;53.404;-1.510;2023-03-19T15:18:00;100467.63;;;14.97;39.29
21988;BME280;11158;53.404;-1.510;2023-03-19T15:20:49;100478.84;;;14.87;39.60
21988;BME280;11158;53.404;-1.510;2023-03-19T15:23:38;100485.94;;;14.55;40.66
21988;BME280;11158;53.404;-1.510;2023-03-19T15:26:34;100492.94;;;14.23;41.32
21988;BME280;11158;53.404;-1.510;2023-03-19T15:29:30;100482.34;;;14.95;40.94
21988;BME280;11158;53.404;-1.510;2023-03-19T15:35:18;100491.91;;;14.24;40.55
21988;BME280;11158;53.404;-1.510;2023-03-19T15:38:08;100485.50;;;14.25;40.50
21988;BME280;11158;53.404;-1.510;2023-03-19T15:40:55;100481.69;;;15.13;39.37
21988;BME280;11158;53.404;-1.510;2023-03-19T15:43:41;100494.88;;;15.27;38.82
21988;BME280;11158;53.404;-1.510;2023-03-19T15:46:30;100496.84;;;14.94;39.94
21988;BME280;11158;53.404;-1.510;2023-03-19T15:49:28;100490.75;;;15.18;39.91
21988;BME280;11158;53.404;-1.510;2023-03-19T15:52:16;100501.22;;;14.81;41.45
21988;BME280;11158;53.404;-1.510;2023-03-19T15:55:03;100491.16;;;15.28;40.76
21988;BME280;11158;53.404;-1.510;2023-03-19T15:57:47;100499.94;;;14.97;41.18